Time;durP1;ratioP1;P1;durP2;ratioP2;P2;SDS_P1;SDS_P2;PMS_P1;PMS_P2;Temp;Humidity;BMP_temperature;BMP_pressure;BME280_temperature;BME280_humidity;BME280_pressure;Samples;Min_cycle;Max_cycle;Signal;HPM_P1;HPM_P2
2023/09/25 00:01:27;;;;;;;0.40;0.30;;;12.10;85.60;;;;;;6183596;23;20001;-75
2023/09/25 00:03:53;;;;;;;0.30;0.30;;;12.10;85.60;;;;;;6157503;23;20006;-75
2023/09/25 00:06:18;;;;;;;0.20;0.20;;;12.10;85.60;;;;;;6158046;23;20005;-75
2023/09/25 00:08:45;;;;;;;0.30;0.30;;;12.10;85.60;;;;;;6159295;23;20009;-75
2023/09/25 00:11:10;;;;;;;0.30;0.30;;;12.00;85.60;;;;;;6134469;23;19997;-75
2023/09/25 00:13:36;;;;;;;0.40;0.40;;;12.10;85.60;;;;;;6159861;23;20008;-76
2023/09/25 00:16:02;;;;;;;0.30;0.30;;;12.00;85.60;;;;;;6159678;23;20010;-76
2023/09/25 00:18:29;;;;;;;0.40;0.40;;;12.00;85.60;;;;;;6159630;23;20063;-75
2023/09/25 00:20:55;;;;;;;0.40;0.30;;;12.00;85.60;;;;;;6187311;23;20019;-75
2023/09/25 00:23:21;;;;;;;0.52;0.30;;;12.00;85.60;;;;;;6186395;23;20001;-75
2023/09/25 00:25:46;;;;;;;0.28;0.20;;;12.00;85.60;;;;;;6135892;23;20319;-75
2023/09/25 00:28:12;;;;;;;0.45;0.32;;;12.00;85.60;;;;;;6160478;23;20331;-75
2023/09/25 00:30:39;;;;;;;0.30;0.30;;;12.00;85.60;;;;;;6160011;23;20005;-75
2023/09/25 00:33:05;;;;;;;0.35;0.30;;;12.00;85.60;;;;;;6160207;23;20023;-75
2023/09/25 00:35:30;;;;;;;0.28;0.20;;;11.90;85.60;;;;;;6160450;23;20005;-75
2023/09/25 00:37:56;;;;;;;0.30;0.30;;;12.00;85.60;;;;;;6186008;23;20075;-75
2023/09/25 00:40:24;;;;;;;0.45;0.30;;;12.00;85.60;;;;;;6159800;23;20345;-75
2023/09/25 00:42:54;;;;;;;0.88;0.47;;;11.90;85.50;;;;;;6112618;23;20013;-75
2023/09/25 00:45:20;;;;;;;0.50;0.50;;;12.00;85.60;;;;;;6186550;23;20044;-76
2023/09/25 00:47:46;;;;;;;0.60;0.30;;;11.90;85.60;;;;;;6186884;23;20013;-76
2023/09/25 00:50:12;;;;;;;0.40;0.38;;;11.90;85.60;;;;;;6112114;23;20024;-76
2023/09/25 00:52:42;;;;;;;0.30;0.30;;;11.90;85.50;;;;;;6112373;23;20005;-75
2023/09/25 00:55:08;;;;;;;0.77;0.30;;;11.90;85.60;;;;;;6137549;23;20001;-75
2023/09/25 00:57:35;;;;;;;0.22;0.20;;;11.90;85.50;;;;;;6187530;23;20012;-75
2023/09/25 01:00:03;;;;;;;0.20;0.20;;;11.80;85.50;;;;;;6160104;23;20005;-75
2023/09/25 01:02:31;;;;;;;0.70;0.30;;;11.80;85.60;;;;;;6135360;23;20076;-75
2023/09/25 01:05:00;;;;;;;0.30;0.30;;;11.90;85.70;;;;;;6160916;23;20448;-75
2023/09/25 01:07:26;;;;;;;0.38;0.30;;;11.90;85.60;;;;;;6187131;23;20056;-75
2023/09/25 01:10:16;;;;;;;0.35;0.35;;;11.90;85.60;;;;;;6135800;23;20004;-75
2023/09/25 01:12:42;;;;;;;0.35;0.35;;;11.80;85.60;;;;;;6137648;23;20001;-75
2023/09/25 01:15:08;;;;;;;1.63;0.38;;;11.80;85.60;;;;;;6135368;23;20055;-75
2023/09/25 01:17:34;;;;;;;0.82;0.45;;;11.80;85.60;;;;;;6159977;23;20013;-76
2023/09/25 01:20:12;;;;;;;0.30;0.30;;;11.80;85.60;;;;;;6185664;23;20861;-75
2023/09/25 01:22:43;;;;;;;0.38;0.30;;;11.80;85.60;;;;;;6158617;23;20035;-75
2023/09/25 01:25:10;;;;;;;0.45;0.40;;;11.80;85.60;;;;;;6158193;23;20017;-75
2023/09/25 01:27:37;;;;;;;0.32;0.30;;;11.80;85.60;;;;;;6160400;23;20204;-75
2023/09/25 01:30:04;;;;;;;0.60;0.30;;;11.80;85.70;;;;;;6160528;23;20410;-75
2023/09/25 01:32:30;;;;;;;0.30;0.30;;;11.80;85.70;;;;;;6159347;23;20091;-75
2023/09/25 01:34:55;;;;;;;0.28;0.28;;;11.70;85.70;;;;;;6135990;23;20009;-75
2023/09/25 01:37:21;;;;;;;0.28;0.28;;;11.80;85.70;;;;;;6161299;23;20013;-75
2023/09/25 01:39:47;;;;;;;0.20;0.20;;;11.70;85.70;;;;;;6188179;23;20001;-75
2023/09/25 01:42:13;;;;;;;0.30;0.30;;;11.60;85.70;;;;;;6138418;23;20012;-75
2023/09/25 01:44:38;;;;;;;0.30;0.30;;;11.70;85.70;;;;;;6138765;23;20013;-76
2023/09/25 01:47:04;;;;;;;0.20;0.20;;;11.70;85.70;;;;;;6139170;23;20058;-76
2023/09/25 01:49:31;;;;;;;0.20;0.20;;;11.70;85.70;;;;;;6164104;23;20001;-75
2023/09/25 01:51:57;;;;;;;0.20;0.20;;;11.70;85.70;;;;;;6189741;23;19997;-75
2023/09/25 01:54:22;;;;;;;0.40;0.35;;;11.70;85.70;;;;;;6190066;23;20060;-75
2023/09/25 01:56:48;;;;;;;1.02;0.40;;;11.70;85.70;;;;;;6138839;23;20005;-75
2023/09/25 01:59:14;;;;;;;0.57;0.38;;;11.70;85.60;;;;;;6138586;23;20032;-75
2023/09/25 02:01:40;;;;;;;0.65;0.30;;;11.80;85.60;;;;;;6139123;23;20028;-75
2023/09/25 02:04:07;;;;;;;0.47;0.38;;;11.70;85.60;;;;;;6163061;23;20009;-75
2023/09/25 02:06:33;;;;;;;0.28;0.28;;;11.70;85.60;;;;;;6163114;23;20063;-76
2023/09/25 02:08:59;;;;;;;0.30;0.30;;;11.70;85.60;;;;;;6111633;23;20303;-76
2023/09/25 02:11:25;;;;;;;0.35;0.30;;;11.70;85.60;;;;;;6189251;23;20052;-76
2023/09/25 02:13:51;;;;;;;0.35;0.35;;;11.70;85.60;;;;;;6163337;23;20028;-76
2023/09/25 02:16:18;;;;;;;0.73;0.32;;;11.70;85.60;;;;;;6137341;23;20016;-75
2023/09/25 02:18:43;;;;;;;0.50;0.30;;;11.70;85.60;;;;;;6187500;23;20012;-75
2023/09/25 02:21:09;;;;;;;0.68;0.40;;;11.70;85.60;;;;;;6136779;23;20012;-75
2023/09/25 02:23:36;;;;;;;0.30;0.30;;;11.60;85.60;;;;;;6161239;23;20460;-75
2023/09/25 02:26:02;;;;;;;0.40;0.30;;;11.70;85.70;;;;;;6186419;23;20013;-75
2023/09/25 02:28:28;;;;;;;0.32;0.30;;;11.70;85.70;;;;;;6186529;23;20001;-75
2023/09/25 02:30:53;;;;;;;0.40;0.40;;;11.60;85.70;;;;;;6161100;23;20008;-75
2023/09/25 02:33:19;;;;;;;0.50;0.40;;;11.60;85.70;;;;;;6112226;23;20029;-75
2023/09/25 02:35:45;;;;;;;0.40;0.40;;;11.70;85.80;;;;;;6161656;23;20001;-75
2023/09/25 02:38:10;;;;;;;0.30;0.30;;;11.60;85.70;;;;;;6187183;23;20422;-75
2023/09/25 02:40:36;;;;;;;0.30;0.30;;;11.70;85.80;;;;;;6187300;23;20008;-75
2023/09/25 02:43:02;;;;;;;0.35;0.25;;;11.60;85.80;;;;;;6161820;23;20006;-75
2023/09/25 02:45:27;;;;;;;0.75;0.40;;;11.60;85.80;;;;;;6160654;23;20025;-75
2023/09/25 02:47:54;;;;;;;0.20;0.20;;;11.60;85.80;;;;;;6187834;23;20036;-75
2023/09/25 02:50:20;;;;;;;0.40;0.40;;;11.60;85.80;;;;;;6161780;23;20001;-75
2023/09/25 02:52:46;;;;;;;0.38;0.38;;;11.50;85.80;;;;;;6133611;23;20004;-76
2023/09/25 02:55:12;;;;;;;0.75;0.40;;;11.60;85.80;;;;;;6157842;23;20005;-76
2023/09/25 02:57:38;;;;;;;0.47;0.40;;;11.50;85.80;;;;;;6184275;23;20441;-75
2023/09/25 03:00:12;;;;;;;0.30;0.30;;;11.50;85.90;;;;;;6158965;23;20018;-75
2023/09/25 03:02:38;;;;;;;0.32;0.30;;;11.50;85.90;;;;;;6160670;23;20013;-75
2023/09/25 03:05:05;;;;;;;0.40;0.40;;;11.50;85.90;;;;;;6136195;23;20092;-75
2023/09/25 03:07:31;;;;;;;0.50;0.40;;;11.50;85.90;;;;;;6136145;23;20015;-75
2023/09/25 03:09:57;;;;;;;0.47;0.30;;;11.50;85.90;;;;;;6185990;23;20096;-75
2023/09/25 03:12:22;;;;;;;0.30;0.30;;;11.50;85.90;;;;;;6160340;23;20005;-75
2023/09/25 03:14:48;;;;;;;0.30;0.30;;;11.50;85.90;;;;;;6133645;23;20009;-75
2023/09/25 03:17:14;;;;;;;1.17;0.32;;;11.50;85.80;;;;;;6160917;23;20088;-75
2023/09/25 03:19:40;;;;;;;0.47;0.40;;;11.50;85.90;;;;;;6109979;23;20445;-75
2023/09/25 03:22:06;;;;;;;0.40;0.40;;;11.70;86.40;;;;;;6161898;23;20013;-75
2023/09/25 03:24:32;;;;;;;0.35;0.35;;;11.50;85.80;;;;;;6160839;23;20017;-76
2023/09/25 03:26:58;;;;;;;0.30;0.30;;;11.50;85.80;;;;;;6110018;23;20012;-75
2023/09/25 03:29:23;;;;;;;0.25;0.25;;;11.50;85.80;;;;;;6131469;23;20060;-75
2023/09/25 03:31:50;;;;;;;0.45;0.45;;;11.50;85.80;;;;;;6158289;23;20005;-75
2023/09/25 03:34:15;;;;;;;0.50;0.30;;;11.50;85.80;;;;;;6158815;23;20001;-75
2023/09/25 03:36:41;;;;;;;0.30;0.30;;;11.60;85.90;;;;;;6159595;23;19997;-76
2023/09/25 03:39:07;;;;;;;0.40;0.30;;;11.50;85.80;;;;;;6185398;23;20024;-75
2023/09/25 03:41:33;;;;;;;0.35;0.30;;;11.60;85.80;;;;;;6159391;23;20508;-75
2023/09/25 03:43:58;;;;;;;0.60;0.50;;;11.60;85.80;;;;;;6111383;23;20004;-75
2023/09/25 03:46:24;;;;;;;0.30;0.30;;;11.50;85.70;;;;;;6134327;23;20021;-76
2023/09/25 03:48:50;;;;;;;0.30;0.30;;;11.60;85.80;;;;;;6185828;23;20433;-76
2023/09/25 03:51:15;;;;;;;0.20;0.20;;;11.60;85.80;;;;;;6186688;23;20013;-75
2023/09/25 03:53:41;;;;;;;0.35;0.25;;;11.60;85.80;;;;;;6160089;23;20009;-75
2023/09/25 03:56:07;;;;;;;0.50;0.40;;;11.60;86.40;;;;;;6110908;23;20009;-75
2023/09/25 03:58:33;;;;;;;0.30;0.30;;;11.60;85.80;;;;;;6110898;23;20009;-75
2023/09/25 04:00:59;;;;;;;0.30;0.30;;;11.50;85.80;;;;;;6135187;23;20032;-75
2023/09/25 04:03:25;;;;;;;0.55;0.28;;;11.50;85.80;;;;;;6186082;23;20048;-75
2023/09/25 04:05:50;;;;;;;0.55;0.40;;;11.50;85.90;;;;;;6134790;23;20017;-75
2023/09/25 04:08:16;;;;;;;0.30;0.30;;;11.70;86.00;;;;;;6158949;23;20056;-76
2023/09/25 04:10:43;;;;;;;0.30;0.30;;;11.50;85.90;;;;;;6157898;23;20025;-75
2023/09/25 04:13:10;;;;;;;0.40;0.40;;;11.50;86.00;;;;;;6133514;23;20012;-76
2023/09/25 04:15:37;;;;;;;0.40;0.40;;;11.50;86.10;;;;;;6184499;23;20009;-75
2023/09/25 04:18:06;;;;;;;0.30;0.30;;;11.50;86.10;;;;;;6133152;23;20097;-75
2023/09/25 04:20:32;;;;;;;0.40;0.40;;;11.50;86.10;;;;;;6184135;23;19998;-75
2023/09/25 04:22:58;;;;;;;0.30;0.30;;;11.50;86.10;;;;;;6133774;23;20001;-75
2023/09/25 04:25:24;;;;;;;1.02;0.52;;;11.50;86.20;;;;;;6185511;23;20295;-75
2023/09/25 04:27:54;;;;;;;0.52;0.40;;;11.40;86.20;;;;;;6159618;23;20005;-75
2023/09/25 04:30:20;;;;;;;0.30;0.30;;;11.50;86.20;;;;;;6136569;23;20123;-75
2023/09/25 04:32:48;;;;;;;0.30;0.30;;;11.50;86.30;;;;;;6136970;23;19997;-76
2023/09/25 04:35:15;;;;;;;0.43;0.30;;;11.40;86.20;;;;;;6161952;23;20001;-75
2023/09/25 04:37:42;;;;;;;0.20;0.20;;;11.40;86.30;;;;;;6136903;23;20088;-75
2023/09/25 04:40:29;;;;;;;0.20;0.20;;;11.50;86.40;;;;;;6187183;23;20028;-76
2023/09/25 04:42:56;;;;;;;0.50;0.32;;;11.40;86.30;;;;;;6165357;23;20021;-76
2023/09/25 04:45:23;;;;;;;0.30;0.22;;;11.40;86.30;;;;;;6187858;23;20016;-75
2023/09/25 04:47:53;;;;;;;0.30;0.30;;;11.40;86.30;;;;;;6136687;23;20005;-76
2023/09/25 04:50:20;;;;;;;0.50;0.40;;;11.40;86.30;;;;;;6137162;23;20064;-75
2023/09/25 04:52:46;;;;;;;0.30;0.30;;;11.40;86.40;;;;;;6186544;23;20084;-75
2023/09/25 04:55:13;;;;;;;0.20;0.20;;;11.40;86.40;;;;;;6161629;23;20082;-75
2023/09/25 04:57:41;;;;;;;0.38;0.30;;;11.40;86.40;;;;;;6136450;23;20008;-76
2023/09/25 05:00:25;;;;;;;0.52;0.32;;;11.40;86.50;;;;;;6161384;23;20013;-75
2023/09/25 05:02:52;;;;;;;0.30;0.30;;;11.40;86.50;;;;;;6164569;23;20005;-76
2023/09/25 05:05:18;;;;;;;0.32;0.32;;;11.30;86.40;;;;;;6161668;23;20027;-75
2023/09/25 05:07:48;;;;;;;1.45;0.40;;;11.30;86.40;;;;;;6136369;23;20056;-75
2023/09/25 05:10:25;;;;;;;0.60;0.45;;;11.30;86.40;;;;;;6188113;23;20001;-76
2023/09/25 05:12:51;;;;;;;0.63;0.40;;;11.30;86.50;;;;;;6137401;23;20006;-75
2023/09/25 05:15:17;;;;;;;0.30;0.30;;;11.30;86.50;;;;;;6188206;23;20001;-75
2023/09/25 05:17:44;;;;;;;0.30;0.30;;;11.30;86.50;;;;;;6137425;23;20011;-75
2023/09/25 05:20:15;;;;;;;0.30;0.30;;;11.40;86.50;;;;;;6159480;23;20100;-75
2023/09/25 05:22:43;;;;;;;0.40;0.30;;;11.30;86.40;;;;;;6142281;23;20028;-75
2023/09/25 05:25:10;;;;;;;0.43;0.40;;;11.40;86.50;;;;;;6138752;23;20147;-75
2023/09/25 05:27:37;;;;;;;0.32;0.20;;;11.40;86.50;;;;;;6189896;23;20007;-75
2023/09/25 05:30:05;;;;;;;0.32;0.30;;;11.40;86.50;;;;;;6165805;23;20009;-75
2023/09/25 05:32:32;;;;;;;0.22;0.22;;;11.40;86.50;;;;;;6140661;23;20009;-75
2023/09/25 05:34:59;;;;;;;0.43;0.35;;;11.40;86.40;;;;;;6163197;23;20013;-75
2023/09/25 05:37:25;;;;;;;0.30;0.30;;;11.40;86.40;;;;;;6189483;23;20016;-75
2023/09/25 05:39:50;;;;;;;0.30;0.30;;;11.40;86.40;;;;;;6165660;23;20009;-75
2023/09/25 05:42:16;;;;;;;0.20;0.20;;;11.40;86.40;;;;;;6142621;23;20318;-76
2023/09/25 05:44:42;;;;;;;0.22;0.20;;;11.40;86.40;;;;;;6141974;23;20048;-76
2023/09/25 05:47:08;;;;;;;0.40;0.40;;;11.50;86.50;;;;;;6193248;23;20441;-76
2023/09/25 05:49:34;;;;;;;0.25;0.22;;;11.40;86.50;;;;;;6167100;23;20009;-75
2023/09/25 05:52:00;;;;;;;0.30;0.30;;;11.40;86.50;;;;;;6167823;23;20067;-76
2023/09/25 05:54:25;;;;;;;0.30;0.30;;;11.40;86.40;;;;;;6191548;23;19997;-75
2023/09/25 05:56:51;;;;;;;0.35;0.25;;;11.40;86.40;;;;;;6190766;23;20016;-76
2023/09/25 05:59:17;;;;;;;0.60;0.28;;;11.50;86.40;;;;;;6162805;23;20001;-75
2023/09/25 06:01:43;;;;;;;0.40;0.40;;;11.50;86.40;;;;;;6190036;23;19997;-75
2023/09/25 06:04:09;;;;;;;0.30;0.30;;;11.50;86.30;;;;;;6189103;23;20052;-75
2023/09/25 06:06:35;;;;;;;0.43;0.40;;;11.50;86.20;;;;;;6171062;23;19993;-77
2023/09/25 06:09:02;;;;;;;0.50;0.40;;;11.50;86.20;;;;;;6176774;23;20008;-77
2023/09/25 06:11:28;;;;;;;0.50;0.40;;;11.60;86.20;;;;;;6162706;23;20437;-78
2023/09/25 06:13:54;;;;;;;0.65;0.50;;;11.60;86.20;;;;;;6162692;23;20012;-78
2023/09/25 06:16:20;;;;;;;0.45;0.38;;;11.70;86.20;;;;;;6165364;23;20453;-78
2023/09/25 06:18:47;;;;;;;0.30;0.30;;;11.70;86.10;;;;;;6166773;23;20024;-78
2023/09/25 06:21:13;;;;;;;0.30;0.30;;;11.80;86.10;;;;;;6168348;23;20463;-78
2023/09/25 06:23:39;;;;;;;0.40;0.40;;;11.80;86.00;;;;;;6166572;23;20017;-79
2023/09/25 06:26:07;;;;;;;0.38;0.30;;;11.80;86.00;;;;;;6167700;23;20013;-78
2023/09/25 06:28:37;;;;;;;0.40;0.40;;;11.80;86.00;;;;;;6171187;23;20012;-78
2023/09/25 06:31:03;;;;;;;0.57;0.32;;;11.90;86.00;;;;;;6161715;23;20008;-78
2023/09/25 06:33:29;;;;;;;0.95;0.45;;;11.90;86.00;;;;;;6150190;23;20336;-77
2023/09/25 06:35:55;;;;;;;0.38;0.38;;;12.00;85.90;;;;;;6127296;23;20028;-77
2023/09/25 06:38:24;;;;;;;0.77;0.40;;;12.10;85.90;;;;;;6042559;23;20016;-78
2023/09/25 06:40:49;;;;;;;0.35;0.35;;;12.00;85.80;;;;;;6015580;23;20456;-77
2023/09/25 06:43:15;;;;;;;0.85;0.57;;;12.10;85.80;;;;;;6038368;23;20015;-78
2023/09/25 06:45:41;;;;;;;0.47;0.47;;;12.10;85.60;;;;;;6034772;23;20098;-78
2023/09/25 06:48:07;;;;;;;0.32;0.30;;;12.20;85.60;;;;;;6035035;23;20325;-77
2023/09/25 06:50:33;;;;;;;0.35;0.35;;;12.30;85.60;;;;;;6048588;23;20007;-76
2023/09/25 06:52:59;;;;;;;0.43;0.40;;;12.30;85.50;;;;;;6016766;23;20011;-76
2023/09/25 06:55:25;;;;;;;0.55;0.45;;;12.30;85.40;;;;;;6015335;23;20018;-76
2023/09/25 06:57:51;;;;;;;0.63;0.38;;;12.40;85.40;;;;;;6044436;23;20016;-76
2023/09/25 07:00:19;;;;;;;0.45;0.40;;;12.40;85.30;;;;;;6040876;23;20083;-76
2023/09/25 07:02:45;;;;;;;0.20;0.20;;;12.60;85.30;;;;;;6044311;23;20023;-76
2023/09/25 07:05:11;;;;;;;0.30;0.30;;;12.70;85.20;;;;;;6046756;23;20015;-76
2023/09/25 07:07:37;;;;;;;0.30;0.30;;;12.80;85.10;;;;;;6092275;23;20023;-76
2023/09/25 07:10:06;;;;;;;0.30;0.30;;;12.80;85.00;;;;;;6163979;23;19990;-76
2023/09/25 07:12:33;;;;;;;0.38;0.38;;;12.90;84.90;;;;;;6155689;23;20004;-77
2023/09/25 07:15:01;;;;;;;0.40;0.30;;;13.00;84.80;;;;;;6123818;23;20012;-76
2023/09/25 07:17:28;;;;;;;0.47;0.40;;;13.10;84.80;;;;;;6187960;23;20084;-77
2023/09/25 07:19:56;;;;;;;0.40;0.40;;;13.20;84.70;;;;;;6197442;23;20012;-77
2023/09/25 07:22:24;;;;;;;0.30;0.30;;;13.20;84.60;;;;;;6174491;23;20028;-76
2023/09/25 07:24:50;;;;;;;0.30;0.30;;;13.30;84.60;;;;;;6182522;23;20024;-76
2023/09/25 07:27:16;;;;;;;0.40;0.40;;;13.30;84.50;;;;;;6201119;23;20005;-76
2023/09/25 07:29:43;;;;;;;0.38;0.35;;;13.40;84.40;;;;;;6167825;23;19997;-76
2023/09/25 07:32:09;;;;;;;0.40;0.40;;;13.50;84.40;;;;;;6139223;23;20002;-76
2023/09/25 07:34:36;;;;;;;0.45;0.30;;;13.60;84.30;;;;;;6195727;23;20001;-77
2023/09/25 07:37:05;;;;;;;0.38;0.38;;;13.70;84.30;;;;;;6174241;23;20001;-77
2023/09/25 07:39:34;;;;;;;0.30;0.30;;;13.70;84.20;;;;;;6126841;23;20055;-77
2023/09/25 07:42:00;;;;;;;0.68;0.52;;;13.80;84.20;;;;;;6081612;23;20066;-76
2023/09/25 07:44:27;;;;;;;0.50;0.50;;;13.80;84.20;;;;;;6061954;23;20019;-76
2023/09/25 07:47:03;;;;;;;0.50;0.40;;;13.90;84.20;;;;;;6053030;23;20003;-77
2023/09/25 07:49:29;;;;;;;1.27;0.40;;;14.00;84.10;;;;;;6053398;23;20062;-76
2023/09/25 07:52:00;;;;;;;0.68;0.40;;;14.10;84.00;;;;;;6072320;23;20018;-75
2023/09/25 07:54:26;;;;;;;0.45;0.45;;;14.20;83.90;;;;;;6042612;23;20066;-76
2023/09/25 07:56:52;;;;;;;0.30;0.30;;;14.30;83.60;;;;;;6066161;23;20010;-75
2023/09/25 07:59:17;;;;;;;0.50;0.40;;;14.40;83.20;;;;;;6043937;23;20013;-75
2023/09/25 08:01:43;;;;;;;1.13;0.40;;;14.70;83.00;;;;;;6046929;23;20386;-75
2023/09/25 08:04:09;;;;;;;0.60;0.50;;;14.80;82.70;;;;;;6041478;23;20332;-74
2023/09/25 08:06:34;;;;;;;0.82;0.45;;;14.90;82.40;;;;;;6042000;23;20444;-76
2023/09/25 08:09:00;;;;;;;0.40;0.40;;;15.10;82.10;;;;;;6046092;23;20508;-74
2023/09/25 08:11:26;;;;;;;0.45;0.45;;;15.20;81.80;;;;;;6055941;23;20011;-77
2023/09/25 08:13:54;;;;;;;0.40;0.40;;;15.30;81.50;;;;;;6184262;23;20092;-76
2023/09/25 08:16:22;;;;;;;0.47;0.47;;;15.40;81.30;;;;;;6176226;23;20035;-77
2023/09/25 08:18:48;;;;;;;0.82;0.60;;;15.50;81.00;;;;;;6207659;23;20017;-76
2023/09/25 08:21:14;;;;;;;1.00;0.65;;;15.60;80.80;;;;;;6170860;23;20004;-76
2023/09/25 08:23:40;;;;;;;1.13;0.55;;;15.70;80.60;;;;;;6121419;23;20020;-77
2023/09/25 08:26:06;;;;;;;1.10;0.73;;;15.70;80.40;;;;;;6154654;23;20009;-76
2023/09/25 08:28:33;;;;;;;0.73;0.55;;;15.80;80.10;;;;;;6145898;23;20015;-77
2023/09/25 08:30:59;;;;;;;1.10;0.70;;;15.90;79.90;;;;;;6177727;23;20024;-77
2023/09/25 08:33:26;;;;;;;1.38;0.50;;;16.00;79.80;;;;;;6206181;23;20321;-77
2023/09/25 08:35:52;;;;;;;0.88;0.65;;;16.00;79.80;;;;;;6129405;23;20001;-77
2023/09/25 08:38:18;;;;;;;0.73;0.60;;;16.10;79.70;;;;;;6151461;23;20009;-77
2023/09/25 08:40:49;;;;;;;0.50;0.50;;;16.10;79.60;;;;;;6152621;23;20001;-78
2023/09/25 08:43:14;;;;;;;0.75;0.63;;;16.10;79.50;;;;;;6175623;23;20009;-76
2023/09/25 08:45:43;;;;;;;1.13;0.60;;;16.20;79.50;;;;;;6170207;23;20079;-77
2023/09/25 08:48:10;;;;;;;1.63;0.52;;;16.20;79.30;;;;;;6203136;23;20069;-76
2023/09/25 08:50:39;;;;;;;0.50;0.50;;;16.30;79.30;;;;;;6203812;23;20008;-77
2023/09/25 08:53:05;;;;;;;0.70;0.60;;;16.40;79.20;;;;;;6176333;23;20769;-76
2023/09/25 08:55:32;;;;;;;0.80;0.73;;;16.40;79.10;;;;;;6174615;23;20009;-77
2023/09/25 08:58:00;;;;;;;0.70;0.57;;;16.40;78.90;;;;;;6129445;23;20008;-78
2023/09/25 09:00:28;;;;;;;0.52;0.52;;;16.50;78.90;;;;;;6147896;23;20014;-76
2023/09/25 09:02:53;;;;;;;1.13;0.63;;;16.50;78.80;;;;;;6179588;23;20069;-77
2023/09/25 09:05:19;;;;;;;0.93;0.70;;;16.60;78.80;;;;;;6184378;23;20013;-78
2023/09/25 09:08:00;;;;;;;1.13;0.70;;;16.70;78.70;;;;;;6144114;23;20507;-76
2023/09/25 09:10:32;;;;;;;0.77;0.70;;;16.70;78.60;;;;;;6200785;23;20025;-76
2023/09/25 09:12:58;;;;;;;0.60;0.60;;;16.80;78.50;;;;;;6201674;23;20001;-76
2023/09/25 09:15:26;;;;;;;0.90;0.60;;;16.80;78.40;;;;;;6137066;23;20005;-76
2023/09/25 09:17:54;;;;;;;1.55;0.80;;;16.90;78.40;;;;;;6166064;23;20064;-76
2023/09/25 09:20:22;;;;;;;1.00;0.80;;;16.80;78.20;;;;;;6163374;23;20076;-77
2023/09/25 09:22:52;;;;;;;0.70;0.70;;;17.00;78.00;;;;;;6160532;23;20005;-77
2023/09/25 09:25:27;;;;;;;0.98;0.70;;;17.00;77.80;;;;;;6189238;23;20550;-78
2023/09/25 09:27:53;;;;;;;1.48;0.77;;;17.00;77.70;;;;;;6200593;23;20013;-77
2023/09/25 09:30:21;;;;;;;1.02;0.60;;;17.00;77.70;;;;;;6127038;23;20658;-77
2023/09/25 09:32:50;;;;;;;0.95;0.80;;;17.10;77.80;;;;;;6128641;23;20020;-77
2023/09/25 09:35:19;;;;;;;0.88;0.70;;;17.10;77.70;;;;;;6179449;23;20009;-77
2023/09/25 09:37:48;;;;;;;0.95;0.73;;;17.20;77.50;;;;;;6154141;23;19993;-77
2023/09/25 09:40:16;;;;;;;0.45;0.45;;;17.20;77.40;;;;;;6157779;23;20036;-77
2023/09/25 09:42:43;;;;;;;1.67;0.90;;;17.20;77.40;;;;;;6179808;23;19981;-77
2023/09/25 09:45:10;;;;;;;0.73;0.65;;;17.30;77.40;;;;;;6158088;23;19996;-76
2023/09/25 09:47:41;;;;;;;0.68;0.57;;;17.30;77.20;;;;;;6159341;23;20044;-77
2023/09/25 09:50:09;;;;;;;1.98;0.82;;;17.50;77.20;;;;;;6180093;23;20096;-78
2023/09/25 09:52:35;;;;;;;0.73;0.57;;;17.60;77.00;;;;;;6161890;23;20002;-77
2023/09/25 09:55:03;;;;;;;0.73;0.60;;;17.60;76.90;;;;;;6141167;23;19997;-77
2023/09/25 09:57:31;;;;;;;0.80;0.65;;;17.60;76.80;;;;;;6166190;23;20004;-78
2023/09/25 09:59:57;;;;;;;1.10;0.70;;;17.70;76.90;;;;;;6163006;23;20086;-76
2023/09/25 10:02:24;;;;;;;0.88;0.50;;;17.70;76.70;;;;;;6140086;23;20096;-76
2023/09/25 10:04:50;;;;;;;1.15;0.70;;;17.80;76.60;;;;;;6196253;23;19993;-77
2023/09/25 10:07:17;;;;;;;1.20;0.80;;;17.80;76.50;;;;;;6196348;23;20135;-77
2023/09/25 10:09:56;;;;;;;1.05;0.70;;;17.80;76.40;;;;;;6206831;23;20009;-76
2023/09/25 10:12:47;;;;;;;0.68;0.68;;;17.90;76.30;;;;;;6178110;23;20368;-76
2023/09/25 10:15:18;;;;;;;1.33;0.98;;;17.90;76.10;;;;;;6180331;23;20511;-76
2023/09/25 10:17:48;;;;;;;1.10;0.80;;;17.90;76.00;;;;;;6130374;23;20017;-76
2023/09/25 10:20:33;;;;;;;0.85;0.80;;;18.00;76.00;;;;;;6177048;23;20012;-77
2023/09/25 10:23:09;;;;;;;0.98;0.77;;;18.00;75.90;;;;;;6203155;23;20034;-76
2023/09/25 10:25:56;;;;;;;2.17;0.65;;;18.00;75.90;;;;;;6140787;23;20036;-76
2023/09/25 10:28:28;;;;;;;1.02;0.63;;;18.10;75.90;;;;;;6156310;23;20008;-76
2023/09/25 10:30:58;;;;;;;1.83;0.90;;;18.10;75.90;;;;;;6159401;23;20012;-75
2023/09/25 10:33:28;;;;;;;2.65;0.90;;;18.20;75.80;;;;;;6185288;23;19998;-75
2023/09/25 10:36:00;;;;;;;1.17;1.00;;;18.20;75.60;;;;;;6158671;23;20005;-76
2023/09/25 10:38:28;;;;;;;0.90;0.73;;;18.30;75.40;;;;;;6185470;23;20801;-76
2023/09/25 10:40:58;;;;;;;0.90;0.80;;;18.30;75.30;;;;;;6134521;23;20459;-75
2023/09/25 10:43:24;;;;;;;0.70;0.60;;;18.40;75.20;;;;;;6158334;23;20005;-75
2023/09/25 10:45:53;;;;;;;1.45;0.82;;;18.40;75.10;;;;;;6185291;23;20573;-75
2023/09/25 10:48:20;;;;;;;1.60;0.77;;;18.40;75.00;;;;;;6158643;23;20005;-76
2023/09/25 10:50:47;;;;;;;3.00;1.00;;;18.50;74.90;;;;;;6185649;23;20911;-76
2023/09/25 10:53:14;;;;;;;1.17;0.88;;;18.50;74.90;;;;;;6159791;23;20004;-76
2023/09/25 10:55:40;;;;;;;0.82;0.70;;;18.60;74.90;;;;;;6160525;23;20008;-76
2023/09/25 10:58:07;;;;;;;0.60;0.60;;;18.50;74.80;;;;;;6135647;23;20008;-76
2023/09/25 11:00:36;;;;;;;1.95;0.77;;;18.50;74.80;;;;;;6159881;23;20009;-76
2023/09/25 11:03:03;;;;;;;0.88;0.73;;;18.60;74.80;;;;;;6185907;23;20004;-76
2023/09/25 11:05:29;;;;;;;1.23;0.88;;;18.60;74.80;;;;;;6185309;23;20079;-76
2023/09/25 11:07:56;;;;;;;1.00;0.90;;;18.60;74.70;;;;;;6136048;23;20001;-76
2023/09/25 11:10:22;;;;;;;1.05;0.75;;;18.70;74.80;;;;;;6185985;23;20128;-76
2023/09/25 11:12:48;;;;;;;0.88;0.80;;;18.90;74.80;;;;;;6185646;23;20004;-76
2023/09/25 11:15:18;;;;;;;1.75;0.93;;;18.80;74.70;;;;;;6185634;23;20923;-76
2023/09/25 11:17:46;;;;;;;1.53;0.90;;;18.80;74.50;;;;;;6159961;23;20036;-76
2023/09/25 11:20:18;;;;;;;1.20;0.80;;;18.80;74.40;;;;;;6134824;23;20009;-77
2023/09/25 11:22:46;;;;;;;0.82;0.68;;;18.90;74.50;;;;;;6157975;23;20067;-76
2023/09/25 11:25:15;;;;;;;0.85;0.68;;;18.80;74.40;;;;;;6186039;23;20017;-75
2023/09/25 11:27:53;;;;;;;1.10;0.80;;;18.80;74.40;;;;;;6158559;23;20377;-76
2023/09/25 11:30:20;;;;;;;0.88;0.60;;;18.90;74.50;;;;;;6158582;23;20009;-75
2023/09/25 11:32:48;;;;;;;0.38;0.38;;;19.00;74.60;;;;;;6158602;23;20001;-75
2023/09/25 11:35:17;;;;;;;0.93;0.70;;;19.00;74.50;;;;;;6184119;23;20082;-77
2023/09/25 11:38:01;;;;;;;0.93;0.65;;;19.10;74.50;;;;;;6135226;23;20004;-77
2023/09/25 11:40:31;;;;;;;1.45;0.90;;;19.10;74.40;;;;;;6195387;23;20043;-78
2023/09/25 11:42:57;;;;;;;1.00;0.70;;;19.20;74.30;;;;;;6077320;23;20445;-76
2023/09/25 11:45:24;;;;;;;1.17;0.70;;;19.30;74.20;;;;;;6082147;23;20038;-77
2023/09/25 11:47:58;;;;;;;1.15;0.80;;;19.30;74.10;;;;;;6116922;23;20006;-77
2023/09/25 11:50:24;;;;;;;1.00;0.75;;;19.40;74.00;;;;;;6064817;23;20001;-77
2023/09/25 11:52:49;;;;;;;1.33;0.82;;;19.40;74.00;;;;;;6075198;23;20482;-78
2023/09/25 11:55:15;;;;;;;1.13;0.70;;;19.60;73.90;;;;;;6080528;23;19995;-76
2023/09/25 11:57:42;;;;;;;1.98;0.90;;;19.70;73.70;;;;;;6085621;23;20447;-76
2023/09/25 12:00:11;;;;;;;1.23;0.60;;;19.70;73.60;;;;;;6084807;23;20064;-77
2023/09/25 12:02:37;;;;;;;1.15;0.80;;;19.70;73.40;;;;;;6049336;23;20015;-76
2023/09/25 12:05:06;;;;;;;1.35;0.60;;;19.70;73.40;;;;;;6063442;23;20038;-76
2023/09/25 12:07:36;;;;;;;2.15;0.90;;;19.70;73.40;;;;;;6085194;23;20438;-77
2023/09/25 12:10:05;;;;;;;1.63;0.80;;;19.70;73.60;;;;;;6083805;23;20011;-77
2023/09/25 12:12:33;;;;;;;0.80;0.68;;;19.80;73.70;;;;;;6058275;23;20008;-77
2023/09/25 12:14:59;;;;;;;1.40;0.70;;;19.80;73.60;;;;;;6071259;23;20126;-76
2023/09/25 12:17:30;;;;;;;0.93;0.60;;;19.90;73.40;;;;;;6144781;23;20025;-77
2023/09/25 12:19:57;;;;;;;0.77;0.60;;;19.90;73.30;;;;;;6140000;23;20497;-77
2023/09/25 12:22:23;;;;;;;1.00;0.63;;;20.00;73.40;;;;;;6116361;23;20018;-73
2023/09/25 12:24:50;;;;;;;0.60;0.60;;;20.00;73.50;;;;;;6133205;23;20018;-76
2023/09/25 12:27:16;;;;;;;0.80;0.60;;;20.00;73.60;;;;;;6131054;23;20013;-75
2023/09/25 12:29:43;;;;;;;0.50;0.50;;;19.90;73.60;;;;;;6123821;23;20427;-76
2023/09/25 12:32:09;;;;;;;1.02;0.70;;;20.00;73.60;;;;;;6098792;23;20135;-75
2023/09/25 12:34:35;;;;;;;1.40;0.70;;;20.00;73.60;;;;;;6122314;23;20041;-75
2023/09/25 12:37:00;;;;;;;0.43;0.40;;;20.00;73.50;;;;;;6133434;23;20083;-76
2023/09/25 12:39:26;;;;;;;0.60;0.60;;;20.10;73.40;;;;;;6100012;23;20362;-75
2023/09/25 12:41:52;;;;;;;0.70;0.70;;;20.10;73.40;;;;;;6125961;23;20002;-76
2023/09/25 12:44:18;;;;;;;1.13;0.70;;;20.10;73.40;;;;;;6124740;23;20006;-76
2023/09/25 12:46:45;;;;;;;0.80;0.68;;;20.20;73.40;;;;;;6128678;23;20041;-77
2023/09/25 12:49:11;;;;;;;1.77;0.73;;;20.10;73.20;;;;;;6104955;23;20013;-78